sensor_id;sensor_type;location;lat;lon;timestamp;P1;durP1;ratioP1;P2;durP2;ratioP2
45792;SDS011;31495;42.740;22.908;2022-10-29T00:00:13;7.53;;;2.97;;
45792;SDS011;31495;42.740;22.908;2022-10-29T00:01:12;7.28;;;2.83;;
45792;SDS011;31495;42.740;22.908;2022-10-29T00:02:12;5.05;;;2.53;;
45792;SDS011;31495;42.740;22.908;2022-10-29T00:03:12;4.97;;;2.53;;
45792;SDS011;31495;42.740;22.908;2022-10-29T00:04:11;6.57;;;2.75;;
45792;SDS011;31495;42.740;22.908;2022-10-29T00:05:10;8.40;;;2.88;;
45792;SDS011;31495;42.740;22.908;2022-10-29T00:06:10;9.98;;;3.13;;
45792;SDS011;31495;42.740;22.908;2022-10-29T00:07:10;10.10;;;2.95;;
45792;SDS011;31495;42.740;22.908;2022-10-29T00:08:09;6.72;;;2.67;;
45792;SDS011;31495;42.740;22.908;2022-10-29T00:09:09;5.68;;;2.53;;
45792;SDS011;31495;42.740;22.908;2022-10-29T00:10:09;9.35;;;3.25;;
45792;SDS011;31495;42.740;22.908;2022-10-29T00:12:18;7.35;;;2.53;;
45792;SDS011;31495;42.740;22.908;2022-10-29T00:13:18;8.27;;;2.60;;
45792;SDS011;31495;42.740;22.908;2022-10-29T00:14:18;7.18;;;2.20;;
45792;SDS011;31495;42.740;22.908;2022-10-29T00:15:18;6.18;;;2.20;;
45792;SDS011;31495;42.740;22.908;2022-10-29T00:16:19;9.13;;;3.17;;
45792;SDS011;31495;42.740;22.908;2022-10-29T00:17:22;11.43;;;4.30;;
45792;SDS011;31495;42.740;22.908;2022-10-29T00:18:21;10.13;;;4.45;;
45792;SDS011;31495;42.740;22.908;2022-10-29T00:19:21;10.90;;;4.40;;
45792;SDS011;31495;42.740;22.908;2022-10-29T00:20:21;8.80;;;4.43;;
45792;SDS011;31495;42.740;22.908;2022-10-29T00:21:21;6.88;;;3.15;;
45792;SDS011;31495;42.740;22.908;2022-10-29T00:22:22;6.47;;;2.95;;
45792;SDS011;31495;42.740;22.908;2022-10-29T00:23:21;6.22;;;3.05;;
45792;SDS011;31495;42.740;22.908;2022-10-29T00:24:21;6.18;;;2.83;;
45792;SDS011;31495;42.740;22.908;2022-10-29T00:25:20;5.80;;;2.80;;
45792;SDS011;31495;42.740;22.908;2022-10-29T00:26:20;3.78;;;1.77;;
45792;SDS011;31495;42.740;22.908;2022-10-29T00:27:20;4.25;;;2.00;;
45792;SDS011;31495;42.740;22.908;2022-10-29T00:28:20;4.22;;;1.88;;
45792;SDS011;31495;42.740;22.908;2022-10-29T00:29:19;3.55;;;1.80;;
45792;SDS011;31495;42.740;22.908;2022-10-29T00:30:18;4.97;;;1.80;;
45792;SDS011;31495;42.740;22.908;2022-10-29T00:31:18;7.60;;;1.90;;
45792;SDS011;31495;42.740;22.908;2022-10-29T00:32:18;4.18;;;2.20;;
45792;SDS011;31495;42.740;22.908;2022-10-29T00:33:17;6.00;;;2.00;;
45792;SDS011;31495;42.740;22.908;2022-10-29T00:34:18;5.53;;;2.35;;
45792;SDS011;31495;42.740;22.908;2022-10-29T00:35:18;6.18;;;2.95;;
45792;SDS011;31495;42.740;22.908;2022-10-29T00:36:18;6.63;;;3.00;;
45792;SDS011;31495;42.740;22.908;2022-10-29T00:37:23;8.25;;;3.35;;
45792;SDS011;31495;42.740;22.908;2022-10-29T00:38:22;7.78;;;2.70;;
45792;SDS011;31495;42.740;22.908;2022-10-29T00:39:22;9.65;;;3.10;;
45792;SDS011;31495;42.740;22.908;2022-10-29T00:40:22;6.18;;;3.40;;
45792;SDS011;31495;42.740;22.908;2022-10-29T00:41:22;8.18;;;3.15;;
45792;SDS011;31495;42.740;22.908;2022-10-29T00:42:24;4.53;;;1.98;;
45792;SDS011;31495;42.740;22.908;2022-10-29T00:43:24;5.95;;;2.60;;
45792;SDS011;31495;42.740;22.908;2022-10-29T00:44:29;5.43;;;2.25;;
45792;SDS011;31495;42.740;22.908;2022-10-29T00:45:30;4.13;;;2.28;;
45792;SDS011;31495;42.740;22.908;2022-10-29T00:46:30;15.27;;;3.05;;
45792;SDS011;31495;42.740;22.908;2022-10-29T00:47:34;5.15;;;2.15;;
45792;SDS011;31495;42.740;22.908;2022-10-29T00:48:37;7.25;;;3.85;;
45792;SDS011;31495;42.740;22.908;2022-10-29T00:49:39;6.15;;;2.80;;
45792;SDS011;31495;42.740;22.908;2022-10-29T00:50:41;9.48;;;3.28;;
45792;SDS011;31495;42.740;22.908;2022-10-29T00:51:41;7.00;;;3.72;;
45792;SDS011;31495;42.740;22.908;2022-10-29T00:52:44;8.05;;;3.05;;
45792;SDS011;31495;42.740;22.908;2022-10-29T00:53:56;6.47;;;2.45;;
45792;SDS011;31495;42.740;22.908;2022-10-29T00:55:04;4.95;;;1.90;;
45792;SDS011;31495;42.740;22.908;2022-10-29T00:56:05;9.45;;;2.60;;
45792;SDS011;31495;42.740;22.908;2022-10-29T00:57:06;6.78;;;2.60;;
45792;SDS011;31495;42.740;22.908;2022-10-29T00:58:10;9.00;;;3.33;;
45792;SDS011;31495;42.740;22.908;2022-10-29T00:59:10;6.68;;;2.58;;
45792;SDS011;31495;42.740;22.908;2022-10-29T01:00:13;7.55;;;3.15;;
45792;SDS011;31495;42.740;22.908;2022-10-29T01:01:14;8.70;;;3.50;;
45792;SDS011;31495;42.740;22.908;2022-10-29T01:02:14;6.20;;;3.13;;
45792;SDS011;31495;42.740;22.908;2022-10-29T01:03:14;10.85;;;3.28;;
45792;SDS011;31495;42.740;22.908;2022-10-29T01:04:13;4.82;;;2.17;;
45792;SDS011;31495;42.740;22.908;2022-10-29T01:05:15;3.78;;;2.17;;
45792;SDS011;31495;42.740;22.908;2022-10-29T01:06:19;4.97;;;2.08;;
45792;SDS011;31495;42.740;22.908;2022-10-29T01:07:19;6.88;;;2.50;;
45792;SDS011;31495;42.740;22.908;2022-10-29T01:08:20;7.22;;;3.45;;
45792;SDS011;31495;42.740;22.908;2022-10-29T01:09:20;7.28;;;3.08;;
45792;SDS011;31495;42.740;22.908;2022-10-29T01:10:20;8.55;;;3.45;;
45792;SDS011;31495;42.740;22.908;2022-10-29T01:19:12;6.72;;;2.72;;
45792;SDS011;31495;42.740;22.908;2022-10-29T01:32:11;5.05;;;2.15;;
45792;SDS011;31495;42.740;22.908;2022-10-29T01:33:16;5.28;;;2.55;;
45792;SDS011;31495;42.740;22.908;2022-10-29T01:36:10;8.35;;;2.17;;
45792;SDS011;31495;42.740;22.908;2022-10-29T01:37:14;5.55;;;2.15;;
45792;SDS011;31495;42.740;22.908;2022-10-29T01:42:57;7.57;;;2.35;;
45792;SDS011;31495;42.740;22.908;2022-10-29T01:46:26;6.72;;;2.30;;
45792;SDS011;31495;42.740;22.908;2022-10-29T01:47:35;6.95;;;3.28;;
45792;SDS011;31495;42.740;22.908;2022-10-29T01:48:41;3.20;;;1.85;;
45792;SDS011;31495;42.740;22.908;2022-10-29T01:49:45;4.68;;;1.67;;
45792;SDS011;31495;42.740;22.908;2022-10-29T01:50:49;5.15;;;2.47;;
45792;SDS011;31495;42.740;22.908;2022-10-29T01:51:53;4.43;;;2.30;;
45792;SDS011;31495;42.740;22.908;2022-10-29T01:52:55;5.78;;;2.13;;
45792;SDS011;31495;42.740;22.908;2022-10-29T01:53:56;7.22;;;3.22;;
45792;SDS011;31495;42.740;22.908;2022-10-29T01:54:58;6.15;;;2.28;;
45792;SDS011;31495;42.740;22.908;2022-10-29T01:55:57;5.97;;;2.65;;
45792;SDS011;31495;42.740;22.908;2022-10-29T01:56:57;5.60;;;2.40;;
45792;SDS011;31495;42.740;22.908;2022-10-29T01:57:58;4.20;;;2.42;;
45792;SDS011;31495;42.740;22.908;2022-10-29T01:58:57;3.42;;;1.92;;
45792;SDS011;31495;42.740;22.908;2022-10-29T02:00:08;7.45;;;2.67;;
45792;SDS011;31495;42.740;22.908;2022-10-29T02:07:53;5.45;;;2.30;;
45792;SDS011;31495;42.740;22.908;2022-10-29T02:09:14;4.93;;;2.60;;
45792;SDS011;31495;42.740;22.908;2022-10-29T02:12:57;4.00;;;1.98;;
45792;SDS011;31495;42.740;22.908;2022-10-29T02:14:01;3.67;;;1.90;;
45792;SDS011;31495;42.740;22.908;2022-10-29T02:15:06;8.23;;;2.38;;
45792;SDS011;31495;42.740;22.908;2022-10-29T02:16:10;6.15;;;2.53;;
45792;SDS011;31495;42.740;22.908;2022-10-29T02:17:10;3.75;;;1.98;;
45792;SDS011;31495;42.740;22.908;2022-10-29T02:18:10;5.13;;;2.20;;
45792;SDS011;31495;42.740;22.908;2022-10-29T02:19:09;4.57;;;1.77;;
45792;SDS011;31495;42.740;22.908;2022-10-29T02:20:10;5.88;;;2.85;;
45792;SDS011;31495;42.740;22.908;2022-10-29T02:21:13;5.50;;;2.70;;
45792;SDS011;31495;42.740;22.908;2022-10-29T02:22:16;5.68;;;2.38;;
45792;SDS011;31495;42.740;22.908;2022-10-29T02:23:16;7.40;;;2.33;;
45792;SDS011;31495;42.740;22.908;2022-10-29T02:24:16;5.32;;;2.15;;
45792;SDS011;31495;42.740;22.908;2022-10-29T02:25:15;6.05;;;3.08;;
45792;SDS011;31495;42.740;22.908;2022-10-29T02:26:15;5.90;;;2.83;;
45792;SDS011;31495;42.740;22.908;2022-10-29T02:27:15;4.78;;;2.63;;
45792;SDS011;31495;42.740;22.908;2022-10-29T02:28:14;7.30;;;3.30;;
45792;SDS011;31495;42.740;22.908;2022-10-29T02:29:14;5.68;;;2.75;;
45792;SDS011;31495;42.740;22.908;2022-10-29T02:30:13;6.10;;;3.13;;
45792;SDS011;31495;42.740;22.908;2022-10-29T02:31:13;6.18;;;3.25;;
45792;SDS011;31495;42.740;22.908;2022-10-29T02:32:13;7.10;;;3.83;;
45792;SDS011;31495;42.740;22.908;2022-10-29T02:33:12;6.15;;;3.42;;
45792;SDS011;31495;42.740;22.908;2022-10-29T02:34:11;6.25;;;2.90;;
45792;SDS011;31495;42.740;22.908;2022-10-29T02:35:11;5.75;;;2.80;;
45792;SDS011;31495;42.740;22.908;2022-10-29T02:36:10;8.38;;;3.75;;
45792;SDS011;31495;42.740;22.908;2022-10-29T02:37:10;6.53;;;4.35;;
45792;SDS011;31495;42.740;22.908;2022-10-29T02:38:09;9.45;;;5.07;;
45792;SDS011;31495;42.740;22.908;2022-10-29T02:39:08;6.82;;;4.32;;
45792;SDS011;31495;42.740;22.908;2022-10-29T02:40:08;6.50;;;3.95;;
45792;SDS011;31495;42.740;22.908;2022-10-29T02:41:07;5.13;;;2.92;;
45792;SDS011;31495;42.740;22.908;2022-10-29T02:42:07;5.28;;;3.30;;
45792;SDS011;31495;42.740;22.908;2022-10-29T02:43:06;4.72;;;2.60;;
45792;SDS011;31495;42.740;22.908;2022-10-29T02:44:06;7.22;;;2.97;;
45792;SDS011;31495;42.740;22.908;2022-10-29T02:45:05;4.93;;;2.33;;
45792;SDS011;31495;42.740;22.908;2022-10-29T02:46:09;6.25;;;2.63;;
45792;SDS011;31495;42.740;22.908;2022-10-29T02:47:16;9.00;;;3.08;;
45792;SDS011;31495;42.740;22.908;2022-10-29T02:48:16;6.68;;;3.70;;
45792;SDS011;31495;42.740;22.908;2022-10-29T02:49:15;7.15;;;3.55;;
45792;SDS011;31495;42.740;22.908;2022-10-29T02:50:15;8.25;;;2.85;;
45792;SDS011;31495;42.740;22.908;2022-10-29T02:51:15;5.70;;;3.08;;
45792;SDS011;31495;42.740;22.908;2022-10-29T02:52:16;5.63;;;3.45;;
45792;SDS011;31495;42.740;22.908;2022-10-29T02:53:15;6.82;;;2.85;;
45792;SDS011;31495;42.740;22.908;2022-10-29T02:54:15;4.53;;;2.38;;
45792;SDS011;31495;42.740;22.908;2022-10-29T02:55:14;10.93;;;3.13;;
45792;SDS011;31495;42.740;22.908;2022-10-29T02:56:13;8.65;;;3.25;;
45792;SDS011;31495;42.740;22.908;2022-10-29T02:57:13;5.88;;;2.67;;
45792;SDS011;31495;42.740;22.908;2022-10-29T02:58:12;4.80;;;2.53;;
45792;SDS011;31495;42.740;22.908;2022-10-29T02:59:12;6.20;;;2.63;;
45792;SDS011;31495;42.740;22.908;2022-10-29T03:00:11;10.00;;;3.35;;
45792;SDS011;31495;42.740;22.908;2022-10-29T03:01:12;7.57;;;3.65;;
45792;SDS011;31495;42.740;22.908;2022-10-29T03:02:11;7.20;;;3.72;;
45792;SDS011;31495;42.740;22.908;2022-10-29T03:03:11;5.47;;;4.07;;
45792;SDS011;31495;42.740;22.908;2022-10-29T03:04:10;6.03;;;3.67;;
45792;SDS011;31495;42.740;22.908;2022-10-29T03:05:10;5.88;;;3.08;;
45792;SDS011;31495;42.740;22.908;2022-10-29T03:06:13;13.77;;;3.92;;
45792;SDS011;31495;42.740;22.908;2022-10-29T03:07:14;3.97;;;2.38;;
45792;SDS011;31495;42.740;22.908;2022-10-29T03:08:13;4.75;;;2.53;;
45792;SDS011;31495;42.740;22.908;2022-10-29T03:09:13;5.40;;;2.47;;
45792;SDS011;31495;42.740;22.908;2022-10-29T03:10:12;5.18;;;2.72;;
45792;SDS011;31495;42.740;22.908;2022-10-29T03:11:12;4.70;;;2.30;;
45792;SDS011;31495;42.740;22.908;2022-10-29T03:12:12;5.18;;;2.53;;
45792;SDS011;31495;42.740;22.908;2022-10-29T03:13:11;5.07;;;2.67;;
45792;SDS011;31495;42.740;22.908;2022-10-29T03:14:11;5.65;;;2.55;;
45792;SDS011;31495;42.740;22.908;2022-10-29T03:15:11;5.68;;;2.47;;
45792;SDS011;31495;42.740;22.908;2022-10-29T03:16:10;6.30;;;2.80;;
45792;SDS011;31495;42.740;22.908;2022-10-29T03:17:09;3.47;;;1.65;;
45792;SDS011;31495;42.740;22.908;2022-10-29T03:18:09;8.27;;;2.95;;
45792;SDS011;31495;42.740;22.908;2022-10-29T03:19:09;4.43;;;2.35;;
45792;SDS011;31495;42.740;22.908;2022-10-29T03:20:08;5.72;;;2.63;;
45792;SDS011;31495;42.740;22.908;2022-10-29T03:21:08;4.80;;;2.17;;
45792;SDS011;31495;42.740;22.908;2022-10-29T03:22:07;5.03;;;1.85;;
45792;SDS011;31495;42.740;22.908;2022-10-29T03:23:07;8.20;;;2.00;;
45792;SDS011;31495;42.740;22.908;2022-10-29T03:24:07;4.50;;;1.70;;
45792;SDS011;31495;42.740;22.908;2022-10-29T03:25:06;6.05;;;1.95;;
45792;SDS011;31495;42.740;22.908;2022-10-29T03:26:06;4.10;;;1.90;;
45792;SDS011;31495;42.740;22.908;2022-10-29T03:27:07;5.65;;;2.30;;
45792;SDS011;31495;42.740;22.908;2022-10-29T03:28:07;6.40;;;1.67;;
45792;SDS011;31495;42.740;22.908;2022-10-29T03:29:06;4.93;;;2.45;;
45792;SDS011;31495;42.740;22.908;2022-10-29T03:30:06;5.07;;;2.47;;
45792;SDS011;31495;42.740;22.908;2022-10-29T03:31:06;6.47;;;2.80;;
45792;SDS011;31495;42.740;22.908;2022-10-29T03:32:06;5.45;;;2.45;;
45792;SDS011;31495;42.740;22.908;2022-10-29T03:33:05;4.18;;;2.22;;
45792;SDS011;31495;42.740;22.908;2022-10-29T03:34:05;5.10;;;1.92;;
45792;SDS011;31495;42.740;22.908;2022-10-29T03:35:04;5.35;;;2.58;;
45792;SDS011;31495;42.740;22.908;2022-10-29T03:36:05;4.72;;;2.42;;
45792;SDS011;31495;42.740;22.908;2022-10-29T03:37:05;5.22;;;2.90;;
45792;SDS011;31495;42.740;22.908;2022-10-29T03:38:05;4.45;;;2.33;;
45792;SDS011;31495;42.740;22.908;2022-10-29T03:39:05;3.53;;;2.08;;
45792;SDS011;31495;42.740;22.908;2022-10-29T03:40:05;4.53;;;1.73;;
45792;SDS011;31495;42.740;22.908;2022-10-29T03:41:05;5.68;;;2.85;;
45792;SDS011;31495;42.740;22.908;2022-10-29T03:42:08;4.00;;;1.92;;
45792;SDS011;31495;42.740;22.908;2022-10-29T03:43:07;4.90;;;2.20;;
45792;SDS011;31495;42.740;22.908;2022-10-29T03:44:07;5.85;;;2.50;;
45792;SDS011;31495;42.740;22.908;2022-10-29T03:45:07;10.35;;;3.33;;
45792;SDS011;31495;42.740;22.908;2022-10-29T03:47:07;8.40;;;2.50;;
45792;SDS011;31495;42.740;22.908;2022-10-29T03:48:07;5.30;;;2.58;;
45792;SDS011;31495;42.740;22.908;2022-10-29T03:49:06;3.58;;;1.92;;
45792;SDS011;31495;42.740;22.908;2022-10-29T03:50:06;6.72;;;3.10;;
45792;SDS011;31495;42.740;22.908;2022-10-29T03:51:06;6.53;;;3.47;;
45792;SDS011;31495;42.740;22.908;2022-10-29T03:52:06;7.28;;;3.22;;
45792;SDS011;31495;42.740;22.908;2022-10-29T03:53:05;6.53;;;3.55;;
45792;SDS011;31495;42.740;22.908;2022-10-29T03:54:04;4.32;;;2.50;;
45792;SDS011;31495;42.740;22.908;2022-10-29T03:55:04;7.47;;;2.88;;
45792;SDS011;31495;42.740;22.908;2022-10-29T03:56:04;6.13;;;2.50;;
45792;SDS011;31495;42.740;22.908;2022-10-29T03:57:04;4.57;;;2.22;;
45792;SDS011;31495;42.740;22.908;2022-10-29T03:58:04;3.80;;;1.90;;
45792;SDS011;31495;42.740;22.908;2022-10-29T03:59:03;5.90;;;2.10;;
45792;SDS011;31495;42.740;22.908;2022-10-29T04:00:02;5.18;;;2.42;;
45792;SDS011;31495;42.740;22.908;2022-10-29T04:01:06;6.82;;;2.72;;
45792;SDS011;31495;42.740;22.908;2022-10-29T04:02:07;3.55;;;1.77;;
45792;SDS011;31495;42.740;22.908;2022-10-29T04:03:07;5.80;;;2.55;;
45792;SDS011;31495;42.740;22.908;2022-10-29T04:04:08;5.47;;;2.42;;
45792;SDS011;31495;42.740;22.908;2022-10-29T04:05:08;6.50;;;3.20;;
45792;SDS011;31495;42.740;22.908;2022-10-29T04:06:08;4.05;;;2.25;;
45792;SDS011;31495;42.740;22.908;2022-10-29T04:07:13;5.72;;;3.22;;
45792;SDS011;31495;42.740;22.908;2022-10-29T04:08:12;4.32;;;2.25;;
45792;SDS011;31495;42.740;22.908;2022-10-29T04:09:11;7.75;;;2.78;;
45792;SDS011;31495;42.740;22.908;2022-10-29T04:10:11;6.80;;;2.30;;
45792;SDS011;31495;42.740;22.908;2022-10-29T04:11:11;6.00;;;2.35;;
45792;SDS011;31495;42.740;22.908;2022-10-29T04:13:12;7.53;;;2.97;;
45792;SDS011;31495;42.740;22.908;2022-10-29T04:14:12;5.05;;;2.50;;
45792;SDS011;31495;42.740;22.908;2022-10-29T04:15:11;6.45;;;2.67;;
45792;SDS011;31495;42.740;22.908;2022-10-29T04:16:11;4.32;;;1.90;;
45792;SDS011;31495;42.740;22.908;2022-10-29T04:17:10;6.30;;;2.95;;
45792;SDS011;31495;42.740;22.908;2022-10-29T04:18:10;7.00;;;2.95;;
45792;SDS011;31495;42.740;22.908;2022-10-29T04:19:10;5.60;;;2.70;;
45792;SDS011;31495;42.740;22.908;2022-10-29T04:20:09;7.35;;;2.83;;
45792;SDS011;31495;42.740;22.908;2022-10-29T04:21:09;8.40;;;2.65;;
45792;SDS011;31495;42.740;22.908;2022-10-29T04:22:08;6.72;;;2.83;;
45792;SDS011;31495;42.740;22.908;2022-10-29T04:23:08;6.60;;;2.42;;
45792;SDS011;31495;42.740;22.908;2022-10-29T04:24:07;5.95;;;2.80;;
45792;SDS011;31495;42.740;22.908;2022-10-29T04:25:07;4.30;;;2.13;;
45792;SDS011;31495;42.740;22.908;2022-10-29T04:26:07;7.55;;;2.92;;
45792;SDS011;31495;42.740;22.908;2022-10-29T04:27:06;6.43;;;3.47;;
45792;SDS011;31495;42.740;22.908;2022-10-29T04:28:05;7.88;;;3.75;;
45792;SDS011;31495;42.740;22.908;2022-10-29T04:29:05;14.65;;;5.60;;
45792;SDS011;31495;42.740;22.908;2022-10-29T04:30:04;11.70;;;6.13;;
45792;SDS011;31495;42.740;22.908;2022-10-29T04:31:05;8.95;;;5.00;;
45792;SDS011;31495;42.740;22.908;2022-10-29T04:32:06;10.02;;;4.85;;
45792;SDS011;31495;42.740;22.908;2022-10-29T04:33:06;10.93;;;4.90;;
45792;SDS011;31495;42.740;22.908;2022-10-29T04:34:05;10.43;;;5.00;;
45792;SDS011;31495;42.740;22.908;2022-10-29T04:35:04;11.23;;;4.95;;
45792;SDS011;31495;42.740;22.908;2022-10-29T04:36:05;9.57;;;4.78;;
45792;SDS011;31495;42.740;22.908;2022-10-29T04:37:05;5.88;;;3.28;;
45792;SDS011;31495;42.740;22.908;2022-10-29T04:38:08;9.75;;;3.42;;
45792;SDS011;31495;42.740;22.908;2022-10-29T04:39:08;6.32;;;2.85;;
45792;SDS011;31495;42.740;22.908;2022-10-29T04:40:08;5.25;;;2.92;;
45792;SDS011;31495;42.740;22.908;2022-10-29T04:41:07;7.82;;;4.18;;
45792;SDS011;31495;42.740;22.908;2022-10-29T04:42:07;5.28;;;3.15;;
45792;SDS011;31495;42.740;22.908;2022-10-29T04:43:06;5.35;;;2.75;;
45792;SDS011;31495;42.740;22.908;2022-10-29T04:44:06;4.45;;;2.35;;
45792;SDS011;31495;42.740;22.908;2022-10-29T04:45:05;10.30;;;2.40;;
45792;SDS011;31495;42.740;22.908;2022-10-29T04:46:08;7.13;;;2.38;;
45792;SDS011;31495;42.740;22.908;2022-10-29T04:47:08;5.95;;;2.13;;
45792;SDS011;31495;42.740;22.908;2022-10-29T04:48:07;6.93;;;2.72;;
45792;SDS011;31495;42.740;22.908;2022-10-29T04:49:07;6.07;;;3.00;;
45792;SDS011;31495;42.740;22.908;2022-10-29T04:50:07;7.65;;;4.18;;
45792;SDS011;31495;42.740;22.908;2022-10-29T04:51:12;6.28;;;3.55;;
45792;SDS011;31495;42.740;22.908;2022-10-29T04:52:17;9.65;;;4.25;;
45792;SDS011;31495;42.740;22.908;2022-10-29T04:53:17;8.65;;;4.50;;
45792;SDS011;31495;42.740;22.908;2022-10-29T04:54:16;10.68;;;4.70;;
45792;SDS011;31495;42.740;22.908;2022-10-29T04:55:16;16.00;;;3.70;;
45792;SDS011;31495;42.740;22.908;2022-10-29T04:56:15;8.77;;;3.67;;
45792;SDS011;31495;42.740;22.908;2022-10-29T04:57:15;7.55;;;3.92;;
45792;SDS011;31495;42.740;22.908;2022-10-29T04:58:16;5.93;;;3.40;;
45792;SDS011;31495;42.740;22.908;2022-10-29T04:59:17;9.27;;;3.95;;
45792;SDS011;31495;42.740;22.908;2022-10-29T05:00:16;10.35;;;4.13;;
45792;SDS011;31495;42.740;22.908;2022-10-29T05:01:16;6.28;;;3.20;;
45792;SDS011;31495;42.740;22.908;2022-10-29T05:02:16;6.13;;;3.15;;
45792;SDS011;31495;42.740;22.908;2022-10-29T05:03:16;10.55;;;3.95;;
45792;SDS011;31495;42.740;22.908;2022-10-29T05:04:15;9.07;;;3.90;;
45792;SDS011;31495;42.740;22.908;2022-10-29T05:05:15;6.35;;;3.17;;
45792;SDS011;31495;42.740;22.908;2022-10-29T05:06:16;8.40;;;4.35;;
45792;SDS011;31495;42.740;22.908;2022-10-29T05:07:16;6.53;;;3.83;;
45792;SDS011;31495;42.740;22.908;2022-10-29T05:08:15;9.52;;;4.13;;
45792;SDS011;31495;42.740;22.908;2022-10-29T05:09:15;6.63;;;3.20;;
45792;SDS011;31495;42.740;22.908;2022-10-29T05:10:15;5.97;;;3.67;;
45792;SDS011;31495;42.740;22.908;2022-10-29T05:11:14;7.93;;;3.17;;
45792;SDS011;31495;42.740;22.908;2022-10-29T05:12:14;5.22;;;2.63;;
45792;SDS011;31495;42.740;22.908;2022-10-29T05:13:13;6.47;;;3.25;;
45792;SDS011;31495;42.740;22.908;2022-10-29T05:14:12;6.15;;;3.03;;
45792;SDS011;31495;42.740;22.908;2022-10-29T05:15:12;20.52;;;15.15;;
45792;SDS011;31495;42.740;22.908;2022-10-29T05:16:11;7.53;;;4.38;;
45792;SDS011;31495;42.740;22.908;2022-10-29T05:17:11;12.63;;;4.55;;
45792;SDS011;31495;42.740;22.908;2022-10-29T05:18:10;7.93;;;3.53;;
45792;SDS011;31495;42.740;22.908;2022-10-29T05:19:09;6.80;;;2.55;;
45792;SDS011;31495;42.740;22.908;2022-10-29T05:20:09;6.47;;;4.05;;
45792;SDS011;31495;42.740;22.908;2022-10-29T05:21:09;16.10;;;7.70;;
45792;SDS011;31495;42.740;22.908;2022-10-29T05:22:08;14.50;;;7.18;;
45792;SDS011;31495;42.740;22.908;2022-10-29T05:23:09;12.70;;;7.25;;
45792;SDS011;31495;42.740;22.908;2022-10-29T05:24:09;16.23;;;9.23;;
45792;SDS011;31495;42.740;22.908;2022-10-29T05:25:09;15.73;;;7.88;;
45792;SDS011;31495;42.740;22.908;2022-10-29T05:26:08;9.93;;;5.10;;
45792;SDS011;31495;42.740;22.908;2022-10-29T05:27:08;7.15;;;4.47;;
45792;SDS011;31495;42.740;22.908;2022-10-29T05:28:10;15.85;;;5.78;;
45792;SDS011;31495;42.740;22.908;2022-10-29T05:29:11;19.48;;;6.60;;
45792;SDS011;31495;42.740;22.908;2022-10-29T05:30:11;15.15;;;7.28;;
45792;SDS011;31495;42.740;22.908;2022-10-29T05:31:10;17.90;;;7.65;;
45792;SDS011;31495;42.740;22.908;2022-10-29T05:32:10;25.17;;;6.43;;
45792;SDS011;31495;42.740;22.908;2022-10-29T05:33:10;14.25;;;6.65;;
45792;SDS011;31495;42.740;22.908;2022-10-29T05:34:12;15.13;;;6.82;;
45792;SDS011;31495;42.740;22.908;2022-10-29T05:35:11;18.73;;;8.30;;
45792;SDS011;31495;42.740;22.908;2022-10-29T05:36:11;24.75;;;9.02;;
45792;SDS011;31495;42.740;22.908;2022-10-29T05:37:10;15.50;;;6.35;;
45792;SDS011;31495;42.740;22.908;2022-10-29T05:38:10;20.55;;;6.93;;
45792;SDS011;31495;42.740;22.908;2022-10-29T05:39:11;19.73;;;7.45;;
45792;SDS011;31495;42.740;22.908;2022-10-29T05:40:11;14.52;;;6.95;;
45792;SDS011;31495;42.740;22.908;2022-10-29T05:41:10;18.25;;;8.00;;
45792;SDS011;31495;42.740;22.908;2022-10-29T05:42:10;18.75;;;7.50;;
45792;SDS011;31495;42.740;22.908;2022-10-29T05:43:10;15.80;;;8.27;;
45792;SDS011;31495;42.740;22.908;2022-10-29T05:44:10;13.20;;;7.32;;
45792;SDS011;31495;42.740;22.908;2022-10-29T05:45:10;14.20;;;7.60;;
45792;SDS011;31495;42.740;22.908;2022-10-29T05:46:10;19.25;;;9.75;;
45792;SDS011;31495;42.740;22.908;2022-10-29T05:47:09;24.95;;;9.98;;
45792;SDS011;31495;42.740;22.908;2022-10-29T05:48:09;18.98;;;7.82;;
45792;SDS011;31495;42.740;22.908;2022-10-29T05:49:09;17.25;;;7.18;;
45792;SDS011;31495;42.740;22.908;2022-10-29T05:50:10;12.43;;;5.97;;
45792;SDS011;31495;42.740;22.908;2022-10-29T05:51:11;18.98;;;7.75;;
45792;SDS011;31495;42.740;22.908;2022-10-29T05:52:10;16.25;;;8.45;;
45792;SDS011;31495;42.740;22.908;2022-10-29T05:53:11;18.38;;;8.35;;
45792;SDS011;31495;42.740;22.908;2022-10-29T05:54:12;26.13;;;9.15;;
45792;SDS011;31495;42.740;22.908;2022-10-29T05:55:11;18.73;;;7.55;;
45792;SDS011;31495;42.740;22.908;2022-10-29T05:56:10;18.50;;;8.43;;
45792;SDS011;31495;42.740;22.908;2022-10-29T05:57:10;16.95;;;8.23;;
45792;SDS011;31495;42.740;22.908;2022-10-29T05:58:10;16.40;;;8.38;;
45792;SDS011;31495;42.740;22.908;2022-10-29T05:59:11;18.20;;;8.32;;
45792;SDS011;31495;42.740;22.908;2022-10-29T06:00:10;17.88;;;7.65;;
45792;SDS011;31495;42.740;22.908;2022-10-29T06:01:10;13.15;;;7.03;;
45792;SDS011;31495;42.740;22.908;2022-10-29T06:02:10;16.08;;;7.20;;
45792;SDS011;31495;42.740;22.908;2022-10-29T06:03:13;14.90;;;7.03;;
45792;SDS011;31495;42.740;22.908;2022-10-29T06:04:22;14.50;;;7.63;;
45792;SDS011;31495;42.740;22.908;2022-10-29T06:05:21;13.45;;;6.22;;
45792;SDS011;31495;42.740;22.908;2022-10-29T06:06:21;18.02;;;6.95;;
45792;SDS011;31495;42.740;22.908;2022-10-29T06:07:20;19.88;;;7.57;;
45792;SDS011;31495;42.740;22.908;2022-10-29T06:08:20;14.15;;;6.47;;
45792;SDS011;31495;42.740;22.908;2022-10-29T06:09:19;14.48;;;7.43;;
45792;SDS011;31495;42.740;22.908;2022-10-29T06:10:18;18.33;;;8.88;;
45792;SDS011;31495;42.740;22.908;2022-10-29T06:11:18;16.55;;;8.70;;
45792;SDS011;31495;42.740;22.908;2022-10-29T06:12:17;16.50;;;7.75;;
45792;SDS011;31495;42.740;22.908;2022-10-29T06:13:18;28.75;;;10.57;;
45792;SDS011;31495;42.740;22.908;2022-10-29T06:14:19;15.68;;;8.30;;
45792;SDS011;31495;42.740;22.908;2022-10-29T06:15:19;15.07;;;7.93;;
45792;SDS011;31495;42.740;22.908;2022-10-29T06:16:19;16.17;;;8.55;;
45792;SDS011;31495;42.740;22.908;2022-10-29T06:17:18;21.02;;;11.52;;
45792;SDS011;31495;42.740;22.908;2022-10-29T06:18:18;25.15;;;12.52;;
45792;SDS011;31495;42.740;22.908;2022-10-29T06:19:17;24.95;;;11.48;;
45792;SDS011;31495;42.740;22.908;2022-10-29T06:20:18;20.52;;;12.05;;
45792;SDS011;31495;42.740;22.908;2022-10-29T06:21:19;21.27;;;12.68;;
45792;SDS011;31495;42.740;22.908;2022-10-29T06:22:18;26.95;;;13.40;;
45792;SDS011;31495;42.740;22.908;2022-10-29T06:23:17;23.88;;;12.98;;
45792;SDS011;31495;42.740;22.908;2022-10-29T06:24:17;26.67;;;14.68;;
45792;SDS011;31495;42.740;22.908;2022-10-29T06:25:16;25.88;;;14.32;;
45792;SDS011;31495;42.740;22.908;2022-10-29T06:26:16;25.35;;;14.65;;
45792;SDS011;31495;42.740;22.908;2022-10-29T06:27:15;26.05;;;13.27;;
45792;SDS011;31495;42.740;22.908;2022-10-29T06:28:15;25.67;;;14.10;;
45792;SDS011;31495;42.740;22.908;2022-10-29T06:29:14;25.88;;;15.27;;
45792;SDS011;31495;42.740;22.908;2022-10-29T06:30:14;29.63;;;12.98;;
45792;SDS011;31495;42.740;22.908;2022-10-29T06:31:13;31.40;;;13.77;;
45792;SDS011;31495;42.740;22.908;2022-10-29T06:32:13;31.58;;;15.80;;
45792;SDS011;31495;42.740;22.908;2022-10-29T06:33:13;30.52;;;17.42;;
45792;SDS011;31495;42.740;22.908;2022-10-29T06:34:14;53.30;;;22.90;;
45792;SDS011;31495;42.740;22.908;2022-10-29T06:35:14;62.83;;;30.88;;
45792;SDS011;31495;42.740;22.908;2022-10-29T06:36:13;59.88;;;27.77;;
45792;SDS011;31495;42.740;22.908;2022-10-29T06:37:13;69.60;;;30.10;;
45792;SDS011;31495;42.740;22.908;2022-10-29T06:38:13;65.00;;;27.40;;